sensor_id;sensor_type;location;lat;lon;timestamp;pressure;altitude;pressure_sealevel;temperature;humidity
38253;BME280;24785;52.372;20.672;2023-02-22T00:02:01;100560.84;;;2.35;100.00
38253;BME280;24785;52.372;20.672;2023-02-22T00:12:12;100557.72;;;2.19;100.00
38253;BME280;24785;52.372;20.672;2023-02-22T00:22:13;100561.94;;;2.02;100.00
38253;BME280;24785;52.372;20.672;2023-02-22T00:32:18;100563.22;;;1.55;100.00
38253;BME280;24785;52.372;20.672;2023-02-22T00:42:19;100577.03;;;0.99;100.00
38253;BME280;24785;52.372;20.672;2023-02-22T00:52:20;100590.25;;;0.40;100.00
38253;BME280;24785;52.372;20.672;2023-02-22T01:02:20;100610.28;;;0.08;100.00
38253;BME280;24785;52.372;20.672;2023-02-22T01:12:21;100625.22;;;-0.13;100.00
38253;BME280;24785;52.372;20.672;2023-02-22T01:22:22;100637.09;;;0.38;100.00
38253;BME280;24785;52.372;20.672;2023-02-22T01:32:23;100633.63;;;0.37;100.00
38253;BME280;24785;52.372;20.672;2023-02-22T01:42:24;100662.28;;;-0.21;100.00
38253;BME280;24785;52.372;20.672;2023-02-22T01:52:25;100657.72;;;0.08;100.00
38253;BME280;24785;52.372;20.672;2023-02-22T02:02:26;100658.38;;;0.43;100.00
38253;BME280;24785;52.372;20.672;2023-02-22T02:12:30;100662.06;;;0.61;100.00
38253;BME280;24785;52.372;20.672;2023-02-22T02:33:32;100673.22;;;0.77;100.00
38253;BME280;24785;52.372;20.672;2023-02-22T02:53:45;100690.25;;;0.87;100.00
38253;BME280;24785;52.372;20.672;2023-02-22T03:04:19;100701.63;;;1.08;100.00
38253;BME280;24785;52.372;20.672;2023-02-22T03:24:58;100718.88;;;1.23;100.00
38253;BME280;24785;52.372;20.672;2023-02-22T03:35:19;100732.47;;;1.34;100.00
38253;BME280;24785;52.372;20.672;2023-02-22T03:45:24;100734.91;;;1.22;100.00
38253;BME280;24785;52.372;20.672;2023-02-22T03:55:27;100749.97;;;1.02;100.00
38253;BME280;24785;52.372;20.672;2023-02-22T04:05:28;100751.38;;;1.04;100.00
38253;BME280;24785;52.372;20.672;2023-02-22T04:15:29;100757.88;;;1.21;100.00
38253;BME280;24785;52.372;20.672;2023-02-22T04:25:30;100759.88;;;0.93;100.00
38253;BME280;24785;52.372;20.672;2023-02-22T04:35:31;100767.78;;;0.80;100.00
38253;BME280;24785;52.372;20.672;2023-02-22T04:45:32;100770.44;;;0.86;100.00
38253;BME280;24785;52.372;20.672;2023-02-22T04:55:32;100777.50;;;0.73;100.00
38253;BME280;24785;52.372;20.672;2023-02-22T05:05:33;100778.13;;;0.68;100.00
38253;BME280;24785;52.372;20.672;2023-02-22T05:15:34;100784.03;;;0.83;100.00
38253;BME280;24785;52.372;20.672;2023-02-22T05:25:35;100791.72;;;0.72;100.00
38253;BME280;24785;52.372;20.672;2023-02-22T05:35:36;100794.16;;;0.73;100.00
38253;BME280;24785;52.372;20.672;2023-02-22T05:45:36;100806.94;;;0.76;100.00
38253;BME280;24785;52.372;20.672;2023-02-22T05:55:37;100821.81;;;0.97;100.00
38253;BME280;24785;52.372;20.672;2023-02-22T06:05:38;100829.94;;;0.96;100.00
38253;BME280;24785;52.372;20.672;2023-02-22T06:15:39;100842.72;;;0.99;100.00
38253;BME280;24785;52.372;20.672;2023-02-22T06:25:40;100858.19;;;1.35;100.00
38253;BME280;24785;52.372;20.672;2023-02-22T06:35:41;100877.44;;;0.96;100.00
38253;BME280;24785;52.372;20.672;2023-02-22T06:45:42;100886.19;;;1.03;100.00
38253;BME280;24785;52.372;20.672;2023-02-22T06:55:43;100891.47;;;1.16;100.00
38253;BME280;24785;52.372;20.672;2023-02-22T07:05:44;100909.00;;;1.63;100.00
38253;BME280;24785;52.372;20.672;2023-02-22T07:15:44;100928.94;;;1.66;100.00
38253;BME280;24785;52.372;20.672;2023-02-22T07:25:45;100945.78;;;1.78;100.00
38253;BME280;24785;52.372;20.672;2023-02-22T07:35:48;100941.31;;;2.25;100.00
38253;BME280;24785;52.372;20.672;2023-02-22T07:45:52;100946.19;;;1.88;100.00
38253;BME280;24785;52.372;20.672;2023-02-22T07:55:53;100949.69;;;1.95;100.00
38253;BME280;24785;52.372;20.672;2023-02-22T08:05:56;100948.81;;;2.28;100.00
38253;BME280;24785;52.372;20.672;2023-02-22T08:15:58;100957.97;;;2.32;100.00
38253;BME280;24785;52.372;20.672;2023-02-22T08:26:06;100955.81;;;2.87;100.00
38253;BME280;24785;52.372;20.672;2023-02-22T08:36:08;100975.47;;;2.39;100.00
38253;BME280;24785;52.372;20.672;2023-02-22T08:46:09;100985.44;;;2.44;100.00
38253;BME280;24785;52.372;20.672;2023-02-22T08:56:10;100981.34;;;2.55;93.29
38253;BME280;24785;52.372;20.672;2023-02-22T09:06:11;100978.88;;;2.60;86.47
38253;BME280;24785;52.372;20.672;2023-02-22T09:16:12;100996.19;;;2.62;87.61
38253;BME280;24785;52.372;20.672;2023-02-22T09:26:13;100981.50;;;2.73;74.69
38253;BME280;24785;52.372;20.672;2023-02-22T09:36:15;101031.94;;;1.05;94.36
38253;BME280;24785;52.372;20.672;2023-02-22T09:46:32;101041.25;;;0.38;92.88
38253;BME280;24785;52.372;20.672;2023-02-22T09:56:34;101043.00;;;0.52;92.29
38253;BME280;24785;52.372;20.672;2023-02-22T10:06:37;101043.50;;;0.97;92.56
38253;BME280;24785;52.372;20.672;2023-02-22T10:17:00;101045.94;;;0.99;89.56
38253;BME280;24785;52.372;20.672;2023-02-22T10:27:06;101043.44;;;0.90;86.94
38253;BME280;24785;52.372;20.672;2023-02-22T10:37:29;101048.97;;;0.96;85.33
38253;BME280;24785;52.372;20.672;2023-02-22T10:47:31;101045.84;;;0.85;82.89
38253;BME280;24785;52.372;20.672;2023-02-22T10:57:35;101040.84;;;0.97;81.63
38253;BME280;24785;52.372;20.672;2023-02-22T11:07:36;101041.06;;;1.02;79.43
38253;BME280;24785;52.372;20.672;2023-02-22T11:17:38;101041.91;;;1.64;78.15
38253;BME280;24785;52.372;20.672;2023-02-22T11:27:43;101030.41;;;1.23;76.24
38253;BME280;24785;52.372;20.672;2023-02-22T11:37:46;101036.41;;;1.52;74.92
38253;BME280;24785;52.372;20.672;2023-02-22T11:48:01;101050.88;;;1.76;73.37
38253;BME280;24785;52.372;20.672;2023-02-22T12:08:26;101042.94;;;1.69;72.65
38253;BME280;24785;52.372;20.672;2023-02-22T12:19:01;101041.50;;;1.60;71.87
38253;BME280;24785;52.372;20.672;2023-02-22T12:29:12;101057.16;;;1.68;72.37
38253;BME280;24785;52.372;20.672;2023-02-22T12:50:19;101066.59;;;1.36;72.06
38253;BME280;24785;52.372;20.672;2023-02-22T13:00:29;101083.13;;;1.45;72.80
38253;BME280;24785;52.372;20.672;2023-02-22T13:20:36;101098.16;;;1.10;71.61
38253;BME280;24785;52.372;20.672;2023-02-22T13:30:42;101089.69;;;0.86;72.22
38253;BME280;24785;52.372;20.672;2023-02-22T13:51:09;101102.03;;;0.79;70.99
38253;BME280;24785;52.372;20.672;2023-02-22T14:01:37;101109.53;;;0.82;70.98
38253;BME280;24785;52.372;20.672;2023-02-22T14:11:40;101106.41;;;0.66;70.45
38253;BME280;24785;52.372;20.672;2023-02-22T14:22:03;101112.91;;;0.70;70.31
38253;BME280;24785;52.372;20.672;2023-02-22T14:32:07;101110.38;;;0.55;69.66
38253;BME280;24785;52.372;20.672;2023-02-22T14:52:29;101120.59;;;0.65;71.04
38253;BME280;24785;52.372;20.672;2023-02-22T15:02:38;101124.19;;;0.57;70.83
38253;BME280;24785;52.372;20.672;2023-02-22T15:12:41;101121.31;;;0.52;71.43
38253;BME280;24785;52.372;20.672;2023-02-22T15:22:42;101137.63;;;0.41;71.30
38253;BME280;24785;52.372;20.672;2023-02-22T15:32:43;101134.72;;;0.57;73.77
38253;BME280;24785;52.372;20.672;2023-02-22T15:42:51;101137.19;;;0.58;72.72
38253;BME280;24785;52.372;20.672;2023-02-22T15:53:06;101139.75;;;0.52;73.98
38253;BME280;24785;52.372;20.672;2023-02-22T16:03:11;101149.75;;;0.56;74.46
38253;BME280;24785;52.372;20.672;2023-02-22T16:13:22;101164.31;;;0.52;74.78
38253;BME280;24785;52.372;20.672;2023-02-22T16:23:25;101168.41;;;0.55;75.67
38253;BME280;24785;52.372;20.672;2023-02-22T16:33:26;101179.56;;;0.57;76.55
38253;BME280;24785;52.372;20.672;2023-02-22T16:43:33;101179.56;;;0.57;77.22
38253;BME280;24785;52.372;20.672;2023-02-22T16:53:35;101184.59;;;0.52;76.21
38253;BME280;24785;52.372;20.672;2023-02-22T17:03:36;101195.97;;;0.52;78.26
38253;BME280;24785;52.372;20.672;2023-02-22T17:13:38;101196.34;;;0.49;79.07
38253;BME280;24785;52.372;20.672;2023-02-22T17:23:43;101198.78;;;0.51;80.27
38253;BME280;24785;52.372;20.672;2023-02-22T17:33:49;101196.69;;;0.46;79.38
38253;BME280;24785;52.372;20.672;2023-02-22T17:43:51;101205.78;;;0.44;81.50
38253;BME280;24785;52.372;20.672;2023-02-22T17:53:53;101202.72;;;0.40;83.39
38253;BME280;24785;52.372;20.672;2023-02-22T18:03:57;101194.13;;;0.31;80.37
38253;BME280;24785;52.372;20.672;2023-02-22T18:13:58;101212.56;;;0.31;78.68
38253;BME280;24785;52.372;20.672;2023-02-22T18:23:59;101221.22;;;0.25;80.44
38253;BME280;24785;52.372;20.672;2023-02-22T18:34:00;101213.00;;;0.14;81.78
38253;BME280;24785;52.372;20.672;2023-02-22T18:44:00;101228.72;;;0.07;83.06
38253;BME280;24785;52.372;20.672;2023-02-22T18:54:02;101218.81;;;0.09;83.73
38253;BME280;24785;52.372;20.672;2023-02-22T19:04:05;101220.38;;;0.04;83.51
38253;BME280;24785;52.372;20.672;2023-02-22T19:14:05;101213.56;;;-0.06;82.83
38253;BME280;24785;52.372;20.672;2023-02-22T19:24:07;101227.28;;;-0.10;84.42
38253;BME280;24785;52.372;20.672;2023-02-22T19:34:09;101232.22;;;-0.22;84.16
38253;BME280;24785;52.372;20.672;2023-02-22T19:44:11;101241.19;;;-0.60;85.23
38253;BME280;24785;52.372;20.672;2023-02-22T19:54:13;101244.25;;;-1.09;87.32
38253;BME280;24785;52.372;20.672;2023-02-22T20:04:21;101243.72;;;-1.50;90.41
38253;BME280;24785;52.372;20.672;2023-02-22T20:14:24;101251.81;;;-1.83;94.15
38253;BME280;24785;52.372;20.672;2023-02-22T20:24:25;101247.00;;;-2.10;97.38
38253;BME280;24785;52.372;20.672;2023-02-22T20:34:28;101259.88;;;-2.32;100.00
38253;BME280;24785;52.372;20.672;2023-02-22T20:44:33;101248.75;;;-2.50;100.00
38253;BME280;24785;52.372;20.672;2023-02-22T20:54:33;101238.06;;;-2.40;100.00
38253;BME280;24785;52.372;20.672;2023-02-22T21:04:35;101242.16;;;-2.38;100.00
38253;BME280;24785;52.372;20.672;2023-02-22T21:14:36;101238.06;;;-2.40;100.00
38253;BME280;24785;52.372;20.672;2023-02-22T21:24:37;101254.34;;;-2.53;98.60
38253;BME280;24785;52.372;20.672;2023-02-22T21:34:38;101254.38;;;-2.69;97.92
38253;BME280;24785;52.372;20.672;2023-02-22T21:44:39;101253.91;;;-2.81;96.61
38253;BME280;24785;52.372;20.672;2023-02-22T21:54:40;101241.59;;;-2.89;95.14
38253;BME280;24785;52.372;20.672;2023-02-22T22:04:41;101243.53;;;-2.58;93.44
38253;BME280;24785;52.372;20.672;2023-02-22T22:14:42;101233.47;;;-2.30;90.79
38253;BME280;24785;52.372;20.672;2023-02-22T22:24:43;101246.78;;;-2.01;88.96
38253;BME280;24785;52.372;20.672;2023-02-22T22:34:45;101236.06;;;-1.83;92.90
38253;BME280;24785;52.372;20.672;2023-02-22T22:44:46;101238.94;;;-1.70;90.35
38253;BME280;24785;52.372;20.672;2023-02-22T22:54:50;101238.06;;;-1.62;87.83
38253;BME280;24785;52.372;20.672;2023-02-22T23:04:51;101246.59;;;-1.60;87.57
38253;BME280;24785;52.372;20.672;2023-02-22T23:14:52;101225.50;;;-1.52;85.67
38253;BME280;24785;52.372;20.672;2023-02-22T23:24:54;101230.19;;;-1.39;84.51
38253;BME280;24785;52.372;20.672;2023-02-22T23:34:55;101221.59;;;-1.33;81.93
38253;BME280;24785;52.372;20.672;2023-02-22T23:44:56;101226.63;;;-1.23;80.62
38253;BME280;24785;52.372;20.672;2023-02-22T23:54:56;101227.09;;;-1.20;79.09
